Keret — UAEH — position and weather

sailwx.info

Track history (hours):
 
Tides and Currents Weather Stations Pressure Air Temp Water Temp Dewpoint Dewpoint Depression Visibility Wind Speed Wind Dir Waves Ship Positions

Keret

Last reported at 2015-Aug-25 09:29 UTC. Time now 2015-Aug-29 16:57 UTC.
Position N 56°53' E 018°50'.

Length 82 m; draft 3.4 m.

Type: Cargo ship. MMSI: 273333000.

Date/timePositionNaut miles runAvg speedWind from/ knotsBaromVisibWave heightAir tempDewpointWater temp
2015-Aug-25 09:29N 56°53' E 018°50'9 8.9
2015-Aug-25 08:31N 56°49' E 018°35'9 8.7
2015-Aug-25 07:30N 56°45' E 018°21'17 9.0
2015-Aug-25 05:34N 56°33' E 017°57'9 9.2
2015-Aug-25 04:33N 56°28' E 017°44'9 9.2
2015-Aug-25 03:33N 56°22' E 017°31'9 9.3
2015-Aug-25 02:33N 56°16' E 017°18'9 9.3
2015-Aug-25 01:33N 56°11' E 017°05'9 9.3
2015-Aug-25 00:33N 56°05' E 016°51'9 9.1
2015-Aug-24 23:33N 55°60' E 016°38'9 9.1
2015-Aug-24 22:33N 55°56' E 016°23'9 9.0
2015-Aug-24 21:33N 55°51' E 016°09'11 8.9
2015-Aug-24 20:22N 55°46' E 015°53'7 9.0
2015-Aug-24 19:33N 55°42' E 015°42'9 9.2
2015-Aug-24 18:33N 55°38' E 015°27'9 9.1
2015-Aug-24 17:33N 55°34' E 015°13'9 8.8
2015-Aug-24 16:33N 55°29' E 014°60'9 8.9
2015-Aug-24 15:34N 55°25' E 014°46'9 9.0
2015-Aug-24 14:33N 55°19' E 014°34'9 9.0
2015-Aug-24 13:33N 55°13' E 014°23'8 8.3
2015-Aug-24 12:33N 55°08' E 014°11'9 8.9
2015-Aug-24 11:33N 55°09' E 013°55'10 8.7
2015-Aug-24 10:23N 55°10' E 013°37'7 8.2
2015-Aug-24 09:32N 55°11' E 013°25'9 8.2
2015-Aug-24 08:26N 55°13' E 013°10'8 8.5
2015-Aug-24 07:33N 55°14' E 012°57'8 8.4
2015-Aug-24 06:33N 55°17' E 012°43'7 7.5
2015-Aug-24 05:33N 55°24' E 012°39'9 9.4
2015-Aug-24 04:33N 55°33' E 012°42'9 8.8
2015-Aug-24 03:33N 55°42' E 012°41'9 8.6
2015-Aug-24 02:34N 55°50' E 012°39'9 8.9
2015-Aug-24 01:33N 55°59' E 012°38'7 6.7
2015-Aug-24 00:33N 56°05' E 012°34'7 7.4
2015-Aug-23 23:33N 56°10' E 012°23'23 7.8
2015-Aug-23 20:33N 56°28' E 011°57'9 9.1
2015-Aug-23 19:33N 56°37' E 011°55'9 8.7
2015-Aug-23 18:33N 56°45' E 011°50'9 8.7
2015-Aug-23 17:33N 56°54' E 011°46'9 9.0
2015-Aug-23 16:33N 57°02' E 011°41'9 8.8
2015-Aug-23 15:32N 57°11' E 011°35'9 9.3
2015-Aug-23 14:33N 57°19' E 011°29'10 9.7
2015-Aug-23 13:33N 57°28' E 011°22'9 9.3
2015-Aug-23 12:33N 57°35' E 011°09'9 8.9
2015-Aug-23 11:33N 57°41' E 010°57'9 8.8
2015-Aug-23 10:33N 57°47' E 010°45'1010.0
2015-Aug-23 09:33N 57°46' E 010°26'1010.1
2015-Aug-23 08:33N 57°42' E 010°09'1010.2
2015-Aug-23 07:33N 57°38' E 009°52'10 9.9
2015-Aug-23 06:33N 57°33' E 009°36'10 9.6
2015-Aug-23 05:33N 57°28' E 009°21'10 9.7
2015-Aug-23 04:30N 57°22' E 009°04'1010.0
2015-Aug-23 03:32N 57°17' E 008°49'1010.1
2015-Aug-23 02:33N 57°12' E 008°34'111 9.8
2015-Aug-22 15:15N 55°39' E 006°46'7 9.5
2015-Aug-22 14:30N 55°33' E 006°39'9 9.5
2015-Aug-22 13:33N 55°25' E 006°31'30 9.6
2015-Aug-22 10:29N 55°01' E 006°01'48 9.4
2015-Aug-22 05:19N 54°19' E 005°19'7 9.5
2015-Aug-22 04:32N 54°12' E 005°14'9 9.5
2015-Aug-22 03:34N 54°04' E 005°08'10 9.6
2015-Aug-22 02:34N 53°55' E 005°02'10 9.7
2015-Aug-22 01:34N 53°46' E 004°56'10 9.9
2015-Aug-22 00:34N 53°37' E 004°50'1010.1
2015-Aug-21 23:31N 53°27' E 004°44'1110.8
2015-Aug-21 22:30N 53°17' E 004°37'1111.2
2015-Aug-21 21:33N 53°07' E 004°29'56 9.3
2015-Aug-21 15:33N 52°16' E 003°53'8 8.1
2015-Aug-21 14:34N 52°08' E 003°55'7 7.1
2015-Aug-21 13:33N 52°01' E 003°59'1211.8
2015-Aug-21 12:34N 51°55' E 004°15'5 4.5
2015-Aug-21 11:33N 51°54' E 004°22'0 0.0
2015-Aug-21 10:33N 51°54' E 004°22'0 0.0
2015-Aug-21 09:27N 51°54' E 004°22'0 0.0
2015-Aug-21 08:33N 51°54' E 004°22'0 0.0
2015-Aug-21 07:33N 51°54' E 004°22'0 0.0
2015-Aug-21 06:27N 51°54' E 004°22'0 0.0
2015-Aug-21 05:33N 51°54' E 004°22'0 0.1
2015-Aug-21 04:34N 51°54' E 004°22'7 7.4
2015-Aug-21 03:33N 51°57' E 004°11'8 8.0
2015-Aug-21 02:33N 52°00' E 003°59'9 8.8
2015-Aug-21 01:33N 51°60' E 003°44'56 8.0
2015-Aug-20 18:33N 51°34' E 002°23'1110.5
2015-Aug-20 17:33N 51°26' E 002°13'1010.4
2015-Aug-20 16:33N 51°17' E 002°05'1111.1
2015-Aug-20 15:33N 51°10' E 001°52'1212.0
2015-Aug-20 14:33N 51°01' E 001°38'317 7.2
2015-Aug-18 18:26N 47°18' W 004°07'9 8.8
2015-Aug-18 17:28N 47°13' W 003°57'13 8.9
2015-Aug-18 16:04N 47°06' W 003°42'5 9.0
2015-Aug-18 15:33N 47°03' W 003°37'9 9.0
2015-Aug-18 14:33N 46°57' W 003°27'137 9.1
2015-Aug-17 23:33N 45°28' W 000°56'39 2.4
2015-Aug-17 07:13N 44°53' W 000°32'0 0.0
2015-Aug-17 06:19N 44°53' W 000°32'0 0.0
2015-Aug-17 04:04N 44°53' W 000°32'0 0.0
2015-Aug-17 03:31N 44°53' W 000°32'  
Track history (hours):
 
Tides and Currents Weather Stations Pressure Air Temp Water Temp Dewpoint Dewpoint Depression Visibility Wind Speed Wind Dir Waves Ship Positions

Keret

Last reported at 2015-Aug-25 09:29 UTC. Time now 2015-Aug-29 16:57 UTC.
Position N 56°53' E 018°50'.

Length 82 m; draft 3.4 m.

Type: Cargo ship. MMSI: 273333000.

Date/timePositionNaut miles runAvg speedWind from/ knotsBaromVisibWave heightAir tempDewpointWater temp
2015-Aug-25 09:29N 56°53' E 018°50'9 8.9
2015-Aug-25 08:31N 56°49' E 018°35'9 8.7
2015-Aug-25 07:30N 56°45' E 018°21'17 9.0
2015-Aug-25 05:34N 56°33' E 017°57'9 9.2
2015-Aug-25 04:33N 56°28' E 017°44'9 9.2
2015-Aug-25 03:33N 56°22' E 017°31'9 9.3
2015-Aug-25 02:33N 56°16' E 017°18'9 9.3
2015-Aug-25 01:33N 56°11' E 017°05'9 9.3
2015-Aug-25 00:33N 56°05' E 016°51'9 9.1
2015-Aug-24 23:33N 55°60' E 016°38'9 9.1
2015-Aug-24 22:33N 55°56' E 016°23'9 9.0
2015-Aug-24 21:33N 55°51' E 016°09'11 8.9
2015-Aug-24 20:22N 55°46' E 015°53'7 9.0
2015-Aug-24 19:33N 55°42' E 015°42'9 9.2
2015-Aug-24 18:33N 55°38' E 015°27'9 9.1
2015-Aug-24 17:33N 55°34' E 015°13'9 8.8
2015-Aug-24 16:33N 55°29' E 014°60'9 8.9
2015-Aug-24 15:34N 55°25' E 014°46'9 9.0
2015-Aug-24 14:33N 55°19' E 014°34'9 9.0
2015-Aug-24 13:33N 55°13' E 014°23'8 8.3
2015-Aug-24 12:33N 55°08' E 014°11'9 8.9
2015-Aug-24 11:33N 55°09' E 013°55'10 8.7
2015-Aug-24 10:23N 55°10' E 013°37'7 8.2
2015-Aug-24 09:32N 55°11' E 013°25'9 8.2
2015-Aug-24 08:26N 55°13' E 013°10'8 8.5
2015-Aug-24 07:33N 55°14' E 012°57'8 8.4
2015-Aug-24 06:33N 55°17' E 012°43'7 7.5
2015-Aug-24 05:33N 55°24' E 012°39'9 9.4
2015-Aug-24 04:33N 55°33' E 012°42'9 8.8
2015-Aug-24 03:33N 55°42' E 012°41'9 8.6
2015-Aug-24 02:34N 55°50' E 012°39'9 8.9
2015-Aug-24 01:33N 55°59' E 012°38'7 6.7
2015-Aug-24 00:33N 56°05' E 012°34'7 7.4
2015-Aug-23 23:33N 56°10' E 012°23'23 7.8
2015-Aug-23 20:33N 56°28' E 011°57'9 9.1
2015-Aug-23 19:33N 56°37' E 011°55'9 8.7
2015-Aug-23 18:33N 56°45' E 011°50'9 8.7
2015-Aug-23 17:33N 56°54' E 011°46'9 9.0
2015-Aug-23 16:33N 57°02' E 011°41'9 8.8
2015-Aug-23 15:32N 57°11' E 011°35'9 9.3
2015-Aug-23 14:33N 57°19' E 011°29'10 9.7
2015-Aug-23 13:33N 57°28' E 011°22'9 9.3
2015-Aug-23 12:33N 57°35' E 011°09'9 8.9
2015-Aug-23 11:33N 57°41' E 010°57'9 8.8
2015-Aug-23 10:33N 57°47' E 010°45'1010.0
2015-Aug-23 09:33N 57°46' E 010°26'1010.1
2015-Aug-23 08:33N 57°42' E 010°09'1010.2
2015-Aug-23 07:33N 57°38' E 009°52'10 9.9
2015-Aug-23 06:33N 57°33' E 009°36'10 9.6
2015-Aug-23 05:33N 57°28' E 009°21'10 9.7
2015-Aug-23 04:30N 57°22' E 009°04'1010.0
2015-Aug-23 03:32N 57°17' E 008°49'1010.1
2015-Aug-23 02:33N 57°12' E 008°34'111 9.8
2015-Aug-22 15:15N 55°39' E 006°46'7 9.5
2015-Aug-22 14:30N 55°33' E 006°39'9 9.5
2015-Aug-22 13:33N 55°25' E 006°31'30 9.6
2015-Aug-22 10:29N 55°01' E 006°01'48 9.4
2015-Aug-22 05:19N 54°19' E 005°19'7 9.5
2015-Aug-22 04:32N 54°12' E 005°14'9 9.5
2015-Aug-22 03:34N 54°04' E 005°08'10 9.6
2015-Aug-22 02:34N 53°55' E 005°02'10 9.7
2015-Aug-22 01:34N 53°46' E 004°56'10 9.9
2015-Aug-22 00:34N 53°37' E 004°50'1010.1
2015-Aug-21 23:31N 53°27' E 004°44'1110.8
2015-Aug-21 22:30N 53°17' E 004°37'1111.2
2015-Aug-21 21:33N 53°07' E 004°29'56 9.3
2015-Aug-21 15:33N 52°16' E 003°53'8 8.1
2015-Aug-21 14:34N 52°08' E 003°55'7 7.1
2015-Aug-21 13:33N 52°01' E 003°59'1211.8
2015-Aug-21 12:34N 51°55' E 004°15'5 4.5
2015-Aug-21 11:33N 51°54' E 004°22'0 0.0
2015-Aug-21 10:33N 51°54' E 004°22'0 0.0
2015-Aug-21 09:27N 51°54' E 004°22'0 0.0
2015-Aug-21 08:33N 51°54' E 004°22'0 0.0
2015-Aug-21 07:33N 51°54' E 004°22'0 0.0
2015-Aug-21 06:27N 51°54' E 004°22'0 0.0
2015-Aug-21 05:33N 51°54' E 004°22'0 0.1
2015-Aug-21 04:34N 51°54' E 004°22'7 7.4
2015-Aug-21 03:33N 51°57' E 004°11'8 8.0
2015-Aug-21 02:33N 52°00' E 003°59'9 8.8
2015-Aug-21 01:33N 51°60' E 003°44'56 8.0
2015-Aug-20 18:33N 51°34' E 002°23'1110.5
2015-Aug-20 17:33N 51°26' E 002°13'1010.4
2015-Aug-20 16:33N 51°17' E 002°05'1111.1
2015-Aug-20 15:33N 51°10' E 001°52'1212.0
2015-Aug-20 14:33N 51°01' E 001°38'317 7.2
2015-Aug-18 18:26N 47°18' W 004°07'9 8.8
2015-Aug-18 17:28N 47°13' W 003°57'13 8.9
2015-Aug-18 16:04N 47°06' W 003°42'5 9.0
2015-Aug-18 15:33N 47°03' W 003°37'9 9.0
2015-Aug-18 14:33N 46°57' W 003°27'137 9.1
2015-Aug-17 23:33N 45°28' W 000°56'39 2.4
2015-Aug-17 07:13N 44°53' W 000°32'0 0.0
2015-Aug-17 06:19N 44°53' W 000°32'0 0.0
2015-Aug-17 04:04N 44°53' W 000°32'0 0.0
2015-Aug-17 03:31N 44°53' W 000°32'  

Dump ship's entire track history